LOT633 EPWA-LBSF
Flight info
| Callsign | LOT633 |
|---|---|
| Flight time | 1h 44m |
| Altitude | 36000 |
| Route | EVINA M985 KOTEK/N0426F350 N133 LENOV DCT KENIN DCT KARIL DCT LOMOS DCT NISVA |
| Aircraft | E75L/M-SDE3GILORVW/S |
Departure
| Time | 2026-05-05 04:58 |
|---|---|
| Airport | Warsaw Chopin Airport (EPWA) |
Arrival
| Time | 2026-05-05 06:43 |
|---|---|
| Airport | Sofia Airport (LBSF) |
| Time | Latitude | Longitude | Altitude | Speed | Heading |
|---|---|---|---|---|---|
| 2026-05-05 04:32 | 52.16882 | 20.97262 | 346 ft | 0 kts | 75° |
| 2026-05-05 04:47 | 52.16880 | 20.97249 | 357 ft | 3 kts | 75° |
| 2026-05-05 04:48 | 52.16875 | 20.97219 | 354 ft | 3 kts | 75° |
| 2026-05-05 04:48 | 52.16870 | 20.97191 | 349 ft | 3 kts | 75° |
| 2026-05-05 04:48 | 52.16866 | 20.97162 | 349 ft | 3 kts | 75° |
| 2026-05-05 04:48 | 52.16861 | 20.97134 | 346 ft | 3 kts | 75° |
| 2026-05-05 04:49 | 52.16856 | 20.97106 | 344 ft | 3 kts | 75° |
| 2026-05-05 04:49 | 52.16854 | 20.97092 | 342 ft | 0 kts | 75° |
| 2026-05-05 04:53 | 52.16852 | 20.97099 | 347 ft | 3 kts | 115° |
| 2026-05-05 04:53 | 52.16822 | 20.97136 | 347 ft | 7 kts | 152° |
| 2026-05-05 04:54 | 52.16765 | 20.97185 | 341 ft | 12 kts | 152° |
| 2026-05-05 04:54 | 52.16667 | 20.97270 | 335 ft | 19 kts | 152° |
| 2026-05-05 04:54 | 52.16567 | 20.97395 | 333 ft | 15 kts | 116° |
| 2026-05-05 04:54 | 52.16519 | 20.97564 | 335 ft | 17 kts | 114° |
| 2026-05-05 04:55 | 52.16468 | 20.97746 | 337 ft | 19 kts | 114° |
| 2026-05-05 04:55 | 52.16410 | 20.97953 | 336 ft | 16 kts | 114° |
| 2026-05-05 04:55 | 52.16356 | 20.98143 | 335 ft | 21 kts | 114° |
| 2026-05-05 04:55 | 52.16292 | 20.98373 | 335 ft | 24 kts | 115° |
| 2026-05-05 04:56 | 52.16228 | 20.98467 | 334 ft | 7 kts | 189° |
| 2026-05-05 04:56 | 52.16209 | 20.98455 | 332 ft | 6 kts | 201° |
| 2026-05-05 04:56 | 52.16191 | 20.98444 | 331 ft | 5 kts | 201° |
| 2026-05-05 04:56 | 52.16141 | 20.98406 | 330 ft | 10 kts | 212° |
| 2026-05-05 04:57 | 52.16118 | 20.98312 | 330 ft | 5 kts | 300° |
| 2026-05-05 04:57 | 52.16134 | 20.98283 | 327 ft | 0 kts | 292° |
| 2026-05-05 04:57 | 52.16136 | 20.98272 | 328 ft | 3 kts | 292° |
| 2026-05-05 04:57 | 52.16152 | 20.98217 | 331 ft | 20 kts | 296° |
| 2026-05-05 04:58 | 52.16342 | 20.97554 | 333 ft | 109 kts | 293° |
| 2026-05-05 04:58 | 52.16746 | 20.96105 | 676 ft | 148 kts | 295° |
| 2026-05-05 04:58 | 52.17147 | 20.94686 | 1838 ft | 137 kts | 288° |
| 2026-05-05 04:58 | 52.17583 | 20.93126 | 2448 ft | 163 kts | 287° |
| 2026-05-05 04:59 | 52.17781 | 20.91261 | 3056 ft | 179 kts | 265° |
| 2026-05-05 04:59 | 52.17717 | 20.89105 | 3737 ft | 196 kts | 261° |
| 2026-05-05 04:59 | 52.17519 | 20.86896 | 4776 ft | 204 kts | 256° |
| 2026-05-05 04:59 | 52.17250 | 20.84515 | 5569 ft | 223 kts | 256° |
| 2026-05-05 05:00 | 52.16970 | 20.82098 | 5890 ft | 218 kts | 256° |
| 2026-05-05 05:00 | 52.16675 | 20.79533 | 6387 ft | 238 kts | 257° |
| 2026-05-05 05:00 | 52.16365 | 20.76831 | 7212 ft | 251 kts | 257° |
| 2026-05-05 05:00 | 52.15911 | 20.74042 | 8094 ft | 256 kts | 242° |
| 2026-05-05 05:01 | 52.14875 | 20.71668 | 8979 ft | 261 kts | 230° |
| 2026-05-05 05:01 | 52.13642 | 20.69474 | 9866 ft | 266 kts | 226° |
| 2026-05-05 05:01 | 52.12299 | 20.67277 | 10450 ft | 279 kts | 225° |
| 2026-05-05 05:01 | 52.10868 | 20.65052 | 10996 ft | 293 kts | 223° |
| 2026-05-05 05:02 | 52.09276 | 20.62934 | 11739 ft | 298 kts | 220° |
| 2026-05-05 05:02 | 52.07641 | 20.60842 | 12569 ft | 302 kts | 219° |
| 2026-05-05 05:02 | 52.05955 | 20.58713 | 13437 ft | 307 kts | 219° |
| 2026-05-05 05:02 | 52.04268 | 20.56587 | 14256 ft | 310 kts | 219° |
| 2026-05-05 05:03 | 52.02545 | 20.54415 | 15065 ft | 314 kts | 219° |
| 2026-05-05 05:03 | 52.00807 | 20.52228 | 15883 ft | 319 kts | 219° |
| 2026-05-05 05:03 | 51.99049 | 20.50016 | 16696 ft | 322 kts | 219° |
| 2026-05-05 05:03 | 51.97230 | 20.47885 | 17475 ft | 328 kts | 211° |
| 2026-05-05 05:04 | 51.95085 | 20.46403 | 18302 ft | 335 kts | 202° |
| 2026-05-05 05:04 | 51.92856 | 20.45334 | 19030 ft | 342 kts | 197° |
| 2026-05-05 05:04 | 51.90499 | 20.44431 | 19783 ft | 348 kts | 195° |
| 2026-05-05 05:04 | 51.88121 | 20.43628 | 20538 ft | 354 kts | 193° |
| 2026-05-05 05:05 | 51.85659 | 20.43121 | 21240 ft | 360 kts | 188° |
| 2026-05-05 05:05 | 51.83128 | 20.42702 | 21937 ft | 366 kts | 188° |
| 2026-05-05 05:05 | 51.80594 | 20.42313 | 22620 ft | 371 kts | 188° |
| 2026-05-05 05:05 | 51.78010 | 20.41920 | 23309 ft | 376 kts | 187° |
| 2026-05-05 05:06 | 51.75366 | 20.41519 | 23936 ft | 381 kts | 187° |
| 2026-05-05 05:06 | 51.72739 | 20.41120 | 24577 ft | 385 kts | 187° |
| 2026-05-05 05:06 | 51.70954 | 20.40849 | 25022 ft | 388 kts | 187° |
| 2026-05-05 05:06 | 51.68235 | 20.40438 | 25662 ft | 392 kts | 187° |
| 2026-05-05 05:07 | 51.65509 | 20.40025 | 26247 ft | 396 kts | 187° |
| 2026-05-05 05:07 | 51.62761 | 20.39609 | 26803 ft | 400 kts | 187° |
| 2026-05-05 05:07 | 51.59951 | 20.39184 | 27350 ft | 404 kts | 187° |
| 2026-05-05 05:07 | 51.57169 | 20.38764 | 27868 ft | 408 kts | 187° |
| 2026-05-05 05:08 | 51.54318 | 20.38334 | 28392 ft | 412 kts | 187° |
| 2026-05-05 05:08 | 51.51436 | 20.37901 | 28923 ft | 416 kts | 186° |
| 2026-05-05 05:08 | 51.48556 | 20.37467 | 29440 ft | 419 kts | 186° |
| 2026-05-05 05:08 | 51.45623 | 20.37026 | 29904 ft | 425 kts | 186° |
| 2026-05-05 05:09 | 51.42666 | 20.36581 | 30147 ft | 432 kts | 186° |
| 2026-05-05 05:09 | 51.39653 | 20.36131 | 30642 ft | 432 kts | 186° |
| 2026-05-05 05:09 | 51.36666 | 20.35685 | 31140 ft | 431 kts | 186° |
| 2026-05-05 05:09 | 51.33696 | 20.35241 | 31621 ft | 431 kts | 186° |
| 2026-05-05 05:10 | 51.30696 | 20.34794 | 32098 ft | 430 kts | 186° |
| 2026-05-05 05:10 | 51.27735 | 20.34353 | 32580 ft | 429 kts | 186° |
| 2026-05-05 05:10 | 51.24749 | 20.33910 | 33063 ft | 429 kts | 186° |
| 2026-05-05 05:10 | 51.21795 | 20.33471 | 33551 ft | 428 kts | 186° |
| 2026-05-05 05:11 | 51.18853 | 20.33036 | 34027 ft | 427 kts | 186° |
| 2026-05-05 05:11 | 51.15877 | 20.32595 | 34431 ft | 427 kts | 186° |
| 2026-05-05 05:11 | 51.12910 | 20.32156 | 34848 ft | 426 kts | 186° |
| 2026-05-05 05:11 | 51.09982 | 20.31724 | 35247 ft | 425 kts | 186° |
| 2026-05-05 05:12 | 51.07047 | 20.31291 | 35641 ft | 425 kts | 186° |
| 2026-05-05 05:12 | 51.04102 | 20.30858 | 35828 ft | 417 kts | 186° |
| 2026-05-05 05:12 | 51.01210 | 20.30432 | 35889 ft | 421 kts | 186° |
| 2026-05-05 05:13 | 50.95290 | 20.29563 | 35936 ft | 429 kts | 186° |
| 2026-05-05 05:13 | 50.89373 | 20.28697 | 35924 ft | 428 kts | 186° |
| 2026-05-05 05:14 | 50.83441 | 20.27830 | 35936 ft | 429 kts | 186° |
| 2026-05-05 05:14 | 50.77504 | 20.26966 | 35928 ft | 428 kts | 186° |
| 2026-05-05 05:15 | 50.71548 | 20.26101 | 35941 ft | 429 kts | 186° |
| 2026-05-05 05:15 | 50.65618 | 20.25771 | 35937 ft | 430 kts | 175° |
| 2026-05-05 05:16 | 50.59801 | 20.27954 | 35940 ft | 433 kts | 158° |
| 2026-05-05 05:16 | 50.54173 | 20.31400 | 35941 ft | 433 kts | 160° |
| 2026-05-05 05:17 | 50.48548 | 20.34734 | 35946 ft | 433 kts | 160° |
| 2026-05-05 05:17 | 50.42911 | 20.38064 | 35946 ft | 433 kts | 160° |
| 2026-05-05 05:18 | 50.37278 | 20.41385 | 35955 ft | 433 kts | 160° |
| 2026-05-05 05:18 | 50.31632 | 20.44705 | 35950 ft | 433 kts | 160° |
| 2026-05-05 05:19 | 50.25999 | 20.48009 | 35959 ft | 433 kts | 160° |
| 2026-05-05 05:19 | 50.20326 | 20.51329 | 35958 ft | 433 kts | 160° |
| 2026-05-05 05:20 | 50.14682 | 20.54622 | 35962 ft | 433 kts | 160° |
| 2026-05-05 05:20 | 50.11880 | 20.56256 | 35635 ft | 435 kts | 160° |
| 2026-05-05 05:20 | 50.09022 | 20.57918 | 35275 ft | 435 kts | 160° |
| 2026-05-05 05:20 | 50.06194 | 20.59561 | 35058 ft | 431 kts | 160° |
| 2026-05-05 05:21 | 50.03398 | 20.61184 | 35006 ft | 433 kts | 160° |
| 2026-05-05 05:21 | 49.97727 | 20.64469 | 34980 ft | 435 kts | 160° |
| 2026-05-05 05:22 | 49.92036 | 20.67756 | 34971 ft | 435 kts | 160° |
| 2026-05-05 05:22 | 49.86375 | 20.71020 | 34981 ft | 435 kts | 160° |
| 2026-05-05 05:23 | 49.80687 | 20.74290 | 34977 ft | 436 kts | 160° |
| 2026-05-05 05:23 | 49.74996 | 20.77553 | 34991 ft | 436 kts | 160° |
| 2026-05-05 05:24 | 49.69321 | 20.80799 | 34984 ft | 436 kts | 160° |
| 2026-05-05 05:24 | 49.63631 | 20.84047 | 35000 ft | 436 kts | 160° |
| 2026-05-05 05:25 | 49.57925 | 20.87295 | 34992 ft | 436 kts | 160° |
| 2026-05-05 05:25 | 49.52266 | 20.90507 | 34999 ft | 436 kts | 160° |
| 2026-05-05 05:26 | 49.46547 | 20.93747 | 35007 ft | 436 kts | 160° |
| 2026-05-05 05:26 | 49.40865 | 20.96958 | 35010 ft | 436 kts | 161° |
| 2026-05-05 05:27 | 49.35273 | 21.00299 | 35010 ft | 432 kts | 156° |
| 2026-05-05 05:27 | 49.27397 | 21.07027 | 35019 ft | 434 kts | 149° |
| 2026-05-05 05:28 | 49.22274 | 21.11935 | 35028 ft | 434 kts | 149° |
| 2026-05-05 05:28 | 49.17153 | 21.16835 | 35018 ft | 434 kts | 148° |
| 2026-05-05 05:29 | 49.12033 | 21.21722 | 35034 ft | 434 kts | 149° |
| 2026-05-05 05:29 | 49.06910 | 21.26597 | 35032 ft | 434 kts | 149° |
| 2026-05-05 05:30 | 49.01771 | 21.31477 | 35039 ft | 434 kts | 148° |
| 2026-05-05 05:30 | 48.96645 | 21.36331 | 35036 ft | 434 kts | 148° |
| 2026-05-05 05:31 | 48.91510 | 21.41182 | 35048 ft | 434 kts | 148° |
| 2026-05-05 05:31 | 48.86373 | 21.46023 | 35046 ft | 434 kts | 148° |
| 2026-05-05 05:32 | 48.81246 | 21.50842 | 35048 ft | 434 kts | 148° |
| 2026-05-05 05:32 | 48.76091 | 21.55677 | 35049 ft | 434 kts | 148° |
| 2026-05-05 05:33 | 48.70939 | 21.60497 | 35052 ft | 435 kts | 148° |
| 2026-05-05 05:33 | 48.65792 | 21.65300 | 35051 ft | 435 kts | 148° |
| 2026-05-05 05:34 | 48.60666 | 21.70072 | 35060 ft | 435 kts | 148° |
| 2026-05-05 05:34 | 48.55504 | 21.74866 | 35052 ft | 435 kts | 148° |
| 2026-05-05 05:35 | 48.50345 | 21.79646 | 35062 ft | 435 kts | 148° |
| 2026-05-05 05:35 | 48.45179 | 21.84421 | 35057 ft | 435 kts | 148° |
| 2026-05-05 05:36 | 48.40023 | 21.89174 | 35062 ft | 435 kts | 148° |
| 2026-05-05 05:36 | 48.34877 | 21.93907 | 35061 ft | 435 kts | 148° |
| 2026-05-05 05:37 | 48.29691 | 21.98665 | 35060 ft | 435 kts | 148° |
| 2026-05-05 05:37 | 48.24521 | 22.03396 | 35059 ft | 435 kts | 148° |
| 2026-05-05 05:38 | 48.19348 | 22.08119 | 35059 ft | 435 kts | 148° |
| 2026-05-05 05:38 | 48.14177 | 22.12827 | 35060 ft | 435 kts | 148° |
| 2026-05-05 05:39 | 48.09007 | 22.17525 | 35061 ft | 435 kts | 148° |
| 2026-05-05 05:39 | 48.03843 | 22.22206 | 35059 ft | 435 kts | 148° |
| 2026-05-05 05:40 | 47.98664 | 22.26889 | 35056 ft | 435 kts | 148° |
| 2026-05-05 05:40 | 47.93461 | 22.31582 | 35055 ft | 435 kts | 148° |
| 2026-05-05 05:41 | 47.88279 | 22.36247 | 35056 ft | 435 kts | 148° |
| 2026-05-05 05:41 | 47.83076 | 22.40916 | 35058 ft | 435 kts | 149° |
| 2026-05-05 05:42 | 47.77480 | 22.44278 | 35066 ft | 436 kts | 164° |
| 2026-05-05 05:42 | 47.71503 | 22.45941 | 35058 ft | 436 kts | 171° |
| 2026-05-05 05:43 | 47.65499 | 22.47265 | 35063 ft | 437 kts | 172° |
| 2026-05-05 05:43 | 47.59501 | 22.48570 | 35058 ft | 437 kts | 172° |
| 2026-05-05 05:44 | 47.53482 | 22.49877 | 35057 ft | 437 kts | 172° |
| 2026-05-05 05:44 | 47.47468 | 22.51181 | 35058 ft | 437 kts | 172° |
| 2026-05-05 05:45 | 47.41453 | 22.52482 | 35052 ft | 437 kts | 172° |
| 2026-05-05 05:45 | 47.35435 | 22.53782 | 35059 ft | 438 kts | 172° |
| 2026-05-05 05:46 | 47.29401 | 22.55081 | 35057 ft | 438 kts | 172° |
| 2026-05-05 05:46 | 47.23374 | 22.56376 | 35059 ft | 438 kts | 172° |
| 2026-05-05 05:47 | 47.17336 | 22.57671 | 35060 ft | 439 kts | 172° |
| 2026-05-05 05:47 | 47.11305 | 22.58961 | 35064 ft | 439 kts | 172° |
| 2026-05-05 05:48 | 47.05219 | 22.60260 | 35058 ft | 440 kts | 172° |
| 2026-05-05 05:48 | 46.99188 | 22.61544 | 35066 ft | 440 kts | 172° |
| 2026-05-05 05:49 | 46.93124 | 22.62832 | 35062 ft | 441 kts | 172° |
| 2026-05-05 05:49 | 46.87058 | 22.64119 | 35072 ft | 441 kts | 172° |
| 2026-05-05 05:50 | 46.80967 | 22.65406 | 35066 ft | 441 kts | 172° |
| 2026-05-05 05:50 | 46.74887 | 22.66689 | 35075 ft | 442 kts | 172° |
| 2026-05-05 05:51 | 46.68794 | 22.67971 | 35072 ft | 443 kts | 172° |
| 2026-05-05 05:51 | 46.63728 | 22.69036 | 35081 ft | 443 kts | 172° |
| 2026-05-05 05:52 | 46.57623 | 22.70316 | 35078 ft | 443 kts | 172° |
| 2026-05-05 05:52 | 46.51477 | 22.71602 | 35081 ft | 444 kts | 172° |
| 2026-05-05 05:53 | 46.45377 | 22.72874 | 35086 ft | 445 kts | 172° |
| 2026-05-05 05:53 | 46.39249 | 22.74150 | 35067 ft | 445 kts | 172° |
| 2026-05-05 05:54 | 46.33112 | 22.75426 | 35089 ft | 446 kts | 172° |
| 2026-05-05 05:54 | 46.26989 | 22.76695 | 35089 ft | 446 kts | 172° |
| 2026-05-05 05:55 | 46.20849 | 22.77965 | 35083 ft | 446 kts | 172° |
| 2026-05-05 05:55 | 46.14676 | 22.79238 | 35091 ft | 447 kts | 172° |
| 2026-05-05 05:56 | 46.08534 | 22.80503 | 35090 ft | 447 kts | 172° |
| 2026-05-05 05:56 | 46.02365 | 22.81769 | 35090 ft | 447 kts | 172° |
| 2026-05-05 05:57 | 45.96183 | 22.83036 | 35091 ft | 447 kts | 172° |
| 2026-05-05 05:57 | 45.90019 | 22.84297 | 35092 ft | 448 kts | 172° |
| 2026-05-05 05:58 | 45.83855 | 22.85555 | 35092 ft | 448 kts | 172° |
| 2026-05-05 05:58 | 45.77672 | 22.86813 | 35096 ft | 449 kts | 172° |
| 2026-05-05 05:59 | 45.71482 | 22.88070 | 35085 ft | 448 kts | 172° |
| 2026-05-05 05:59 | 45.65303 | 22.89322 | 35098 ft | 449 kts | 172° |
| 2026-05-05 06:00 | 45.59110 | 22.90574 | 35088 ft | 450 kts | 172° |
| 2026-05-05 06:00 | 45.52925 | 22.91823 | 35098 ft | 451 kts | 172° |
| 2026-05-05 06:01 | 45.46716 | 22.93072 | 35091 ft | 450 kts | 172° |
| 2026-05-05 06:01 | 45.40514 | 22.94318 | 35090 ft | 451 kts | 172° |
| 2026-05-05 06:02 | 45.34311 | 22.95561 | 35072 ft | 450 kts | 172° |
| 2026-05-05 06:02 | 45.28092 | 22.96805 | 35080 ft | 451 kts | 172° |
| 2026-05-05 06:03 | 45.21894 | 22.98042 | 35089 ft | 451 kts | 172° |
| 2026-05-05 06:03 | 45.15680 | 22.99278 | 35080 ft | 451 kts | 172° |
| 2026-05-05 06:04 | 45.09437 | 23.00519 | 35074 ft | 451 kts | 172° |
| 2026-05-05 06:04 | 45.03255 | 23.01744 | 35075 ft | 452 kts | 172° |
| 2026-05-05 06:05 | 44.97037 | 23.02974 | 35075 ft | 452 kts | 172° |
| 2026-05-05 06:05 | 44.90803 | 23.04205 | 35074 ft | 453 kts | 172° |
| 2026-05-05 06:06 | 44.84542 | 23.05437 | 35074 ft | 452 kts | 172° |
| 2026-05-05 06:06 | 44.78320 | 23.06660 | 35069 ft | 453 kts | 172° |
| 2026-05-05 06:07 | 44.72104 | 23.07879 | 35073 ft | 453 kts | 172° |
| 2026-05-05 06:07 | 44.65858 | 23.09101 | 35071 ft | 453 kts | 172° |
| 2026-05-05 06:08 | 44.59576 | 23.10326 | 35067 ft | 454 kts | 172° |
| 2026-05-05 06:08 | 44.53366 | 23.11536 | 35070 ft | 454 kts | 172° |
| 2026-05-05 06:09 | 44.47097 | 23.12755 | 35069 ft | 455 kts | 172° |
| 2026-05-05 06:09 | 44.40813 | 23.13974 | 35063 ft | 454 kts | 172° |
| 2026-05-05 06:10 | 44.34562 | 23.15183 | 35069 ft | 455 kts | 172° |
| 2026-05-05 06:10 | 44.28292 | 23.16394 | 35063 ft | 455 kts | 172° |
| 2026-05-05 06:11 | 44.22027 | 23.17601 | 35061 ft | 455 kts | 172° |
| 2026-05-05 06:11 | 44.15764 | 23.18805 | 35063 ft | 455 kts | 172° |
| 2026-05-05 06:12 | 44.09493 | 23.20009 | 35060 ft | 456 kts | 172° |
| 2026-05-05 06:12 | 44.03180 | 23.21217 | 35067 ft | 456 kts | 172° |
| 2026-05-05 06:13 | 43.96891 | 23.22419 | 35061 ft | 456 kts | 172° |
| 2026-05-05 06:13 | 43.90611 | 23.23616 | 35068 ft | 456 kts | 172° |
| 2026-05-05 06:14 | 43.84286 | 23.24465 | 34738 ft | 454 kts | 182° |
| 2026-05-05 06:14 | 43.81168 | 23.24060 | 33670 ft | 456 kts | 192° |
| 2026-05-05 06:14 | 43.78070 | 23.22930 | 32529 ft | 456 kts | 202° |
| 2026-05-05 06:15 | 43.75158 | 23.21267 | 31415 ft | 456 kts | 207° |
| 2026-05-05 06:15 | 43.72259 | 23.19400 | 30262 ft | 458 kts | 208° |
| 2026-05-05 06:15 | 43.69365 | 23.17609 | 29060 ft | 459 kts | 204° |
| 2026-05-05 06:15 | 43.66397 | 23.15988 | 28113 ft | 452 kts | 203° |
| 2026-05-05 06:16 | 43.63511 | 23.14445 | 27230 ft | 445 kts | 203° |
| 2026-05-05 06:16 | 43.60627 | 23.12918 | 26361 ft | 438 kts | 202° |
| 2026-05-05 06:16 | 43.57829 | 23.11439 | 25541 ft | 431 kts | 202° |
| 2026-05-05 06:16 | 43.55039 | 23.09966 | 24734 ft | 425 kts | 202° |
| 2026-05-05 06:17 | 43.52312 | 23.08526 | 23966 ft | 419 kts | 202° |
| 2026-05-05 06:17 | 43.49618 | 23.07105 | 23127 ft | 413 kts | 202° |
| 2026-05-05 06:17 | 43.46932 | 23.05690 | 22246 ft | 408 kts | 202° |
| 2026-05-05 06:17 | 43.44321 | 23.04313 | 21398 ft | 403 kts | 201° |
| 2026-05-05 06:18 | 43.41711 | 23.02941 | 20575 ft | 398 kts | 201° |
| 2026-05-05 06:18 | 43.39122 | 23.01580 | 19784 ft | 393 kts | 201° |
| 2026-05-05 06:18 | 43.36598 | 23.00254 | 19025 ft | 388 kts | 201° |
| 2026-05-05 06:18 | 43.34065 | 22.98926 | 18251 ft | 384 kts | 201° |
| 2026-05-05 06:19 | 43.31607 | 22.97636 | 17462 ft | 379 kts | 201° |
| 2026-05-05 06:19 | 43.29134 | 22.96342 | 16682 ft | 374 kts | 201° |
| 2026-05-05 06:19 | 43.26734 | 22.95085 | 15916 ft | 370 kts | 201° |
| 2026-05-05 06:19 | 43.24332 | 22.93827 | 15194 ft | 365 kts | 201° |
| 2026-05-05 06:20 | 43.21987 | 22.92601 | 14488 ft | 361 kts | 201° |
| 2026-05-05 06:20 | 43.19641 | 22.91378 | 13788 ft | 357 kts | 200° |
| 2026-05-05 06:20 | 43.17349 | 22.90180 | 13042 ft | 353 kts | 200° |
| 2026-05-05 06:20 | 43.15050 | 22.88982 | 12406 ft | 347 kts | 200° |
| 2026-05-05 06:21 | 43.12855 | 22.87838 | 12257 ft | 344 kts | 200° |
| 2026-05-05 06:21 | 43.10596 | 22.86667 | 12201 ft | 347 kts | 200° |
| 2026-05-05 06:21 | 43.08349 | 22.85496 | 12155 ft | 346 kts | 200° |
| 2026-05-05 06:21 | 43.06205 | 22.84379 | 12090 ft | 307 kts | 200° |
| 2026-05-05 06:22 | 43.04264 | 22.83373 | 12088 ft | 297 kts | 200° |
| 2026-05-05 06:22 | 43.02304 | 22.82356 | 12059 ft | 300 kts | 200° |
| 2026-05-05 06:22 | 43.00337 | 22.81414 | 11582 ft | 297 kts | 191° |
| 2026-05-05 06:22 | 42.98317 | 22.81474 | 11156 ft | 292 kts | 162° |
| 2026-05-05 06:23 | 42.96564 | 22.82797 | 10703 ft | 283 kts | 135° |
| 2026-05-05 06:23 | 42.95206 | 22.84712 | 10285 ft | 279 kts | 128° |
| 2026-05-05 06:23 | 42.94059 | 22.86796 | 9893 ft | 275 kts | 121° |
| 2026-05-05 06:23 | 42.93012 | 22.88993 | 9447 ft | 274 kts | 120° |
| 2026-05-05 06:24 | 42.91999 | 22.91174 | 8997 ft | 272 kts | 120° |
| 2026-05-05 06:24 | 42.91002 | 22.93334 | 8585 ft | 271 kts | 120° |
| 2026-05-05 06:24 | 42.90092 | 22.95598 | 8134 ft | 268 kts | 111° |
| 2026-05-05 06:24 | 42.89480 | 22.97967 | 7705 ft | 266 kts | 104° |
| 2026-05-05 06:25 | 42.89021 | 23.00390 | 7315 ft | 264 kts | 101° |
| 2026-05-05 06:25 | 42.88674 | 23.02876 | 7198 ft | 267 kts | 95° |
| 2026-05-05 06:25 | 42.88496 | 23.05358 | 7153 ft | 263 kts | 93° |
| 2026-05-05 06:25 | 42.88348 | 23.07853 | 7125 ft | 262 kts | 92° |
| 2026-05-05 06:26 | 42.88207 | 23.10339 | 7131 ft | 262 kts | 92° |
| 2026-05-05 06:26 | 42.88068 | 23.12800 | 7132 ft | 263 kts | 92° |
| 2026-05-05 06:26 | 42.87924 | 23.15304 | 7138 ft | 263 kts | 92° |
| 2026-05-05 06:26 | 42.87781 | 23.17776 | 7149 ft | 263 kts | 92° |
| 2026-05-05 06:27 | 42.87622 | 23.20260 | 7160 ft | 264 kts | 97° |
| 2026-05-05 06:27 | 42.85356 | 23.23993 | 7160 ft | 273 kts | 159° |
| 2026-05-05 06:27 | 42.83488 | 23.24229 | 7146 ft | 275 kts | 187° |
| 2026-05-05 06:28 | 42.81628 | 23.23584 | 7155 ft | 277 kts | 206° |
| 2026-05-05 06:28 | 42.80183 | 23.21913 | 7153 ft | 276 kts | 237° |
| 2026-05-05 06:28 | 42.79528 | 23.19490 | 7149 ft | 273 kts | 265° |
| 2026-05-05 06:28 | 42.79519 | 23.16898 | 7180 ft | 272 kts | 274° |
| 2026-05-05 06:29 | 42.79618 | 23.14344 | 7160 ft | 272 kts | 276° |
| 2026-05-05 06:29 | 42.79761 | 23.11787 | 7141 ft | 271 kts | 276° |
| 2026-05-05 06:29 | 42.79905 | 23.09210 | 7110 ft | 271 kts | 276° |
| 2026-05-05 06:29 | 42.80049 | 23.06657 | 7081 ft | 271 kts | 276° |
| 2026-05-05 06:30 | 42.80196 | 23.04089 | 7066 ft | 271 kts | 276° |
| 2026-05-05 06:30 | 42.80343 | 23.01554 | 7055 ft | 271 kts | 276° |
| 2026-05-05 06:30 | 42.80491 | 22.99020 | 7033 ft | 261 kts | 276° |
| 2026-05-05 06:30 | 42.80630 | 22.96609 | 7038 ft | 250 kts | 276° |
| 2026-05-05 06:31 | 42.80758 | 22.94292 | 7056 ft | 248 kts | 276° |
| 2026-05-05 06:31 | 42.80888 | 22.91937 | 7044 ft | 248 kts | 276° |
| 2026-05-05 06:31 | 42.81019 | 22.89606 | 7079 ft | 249 kts | 275° |
| 2026-05-05 06:31 | 42.81145 | 22.87242 | 7098 ft | 249 kts | 276° |
| 2026-05-05 06:32 | 42.81272 | 22.84884 | 7074 ft | 249 kts | 276° |
| 2026-05-05 06:32 | 42.81375 | 22.82560 | 7092 ft | 249 kts | 269° |
| 2026-05-05 06:32 | 42.80841 | 22.80319 | 7066 ft | 251 kts | 235° |
| 2026-05-05 06:32 | 42.79498 | 22.78831 | 7061 ft | 251 kts | 202° |
| 2026-05-05 06:33 | 42.77790 | 22.78495 | 7079 ft | 250 kts | 178° |
| 2026-05-05 06:33 | 42.76047 | 22.78631 | 7093 ft | 250 kts | 173° |
| 2026-05-05 06:33 | 42.74440 | 22.79344 | 6928 ft | 247 kts | 143° |
| 2026-05-05 06:33 | 42.73382 | 22.81132 | 6763 ft | 242 kts | 110° |
| 2026-05-05 06:34 | 42.73055 | 22.83333 | 6496 ft | 239 kts | 95° |
| 2026-05-05 06:34 | 42.72910 | 22.85604 | 6205 ft | 239 kts | 92° |
| 2026-05-05 06:34 | 42.72785 | 22.87851 | 6121 ft | 240 kts | 93° |
| 2026-05-05 06:34 | 42.72659 | 22.90114 | 6089 ft | 240 kts | 94° |
| 2026-05-05 06:35 | 42.72548 | 22.91610 | 6067 ft | 239 kts | 94° |
| 2026-05-05 06:35 | 42.72354 | 22.93870 | 6045 ft | 239 kts | 95° |
| 2026-05-05 06:35 | 42.72149 | 22.96095 | 6010 ft | 239 kts | 95° |
| 2026-05-05 06:35 | 42.71963 | 22.98346 | 5761 ft | 239 kts | 89° |
| 2026-05-05 06:36 | 42.72027 | 23.00585 | 5542 ft | 237 kts | 86° |
| 2026-05-05 06:36 | 42.71937 | 23.02861 | 5302 ft | 239 kts | 95° |
| 2026-05-05 06:36 | 42.71767 | 23.05115 | 5055 ft | 238 kts | 92° |
| 2026-05-05 06:36 | 42.71669 | 23.07357 | 5039 ft | 238 kts | 92° |
| 2026-05-05 06:37 | 42.71542 | 23.09566 | 5039 ft | 231 kts | 93° |
| 2026-05-05 06:37 | 42.71412 | 23.11653 | 5037 ft | 208 kts | 93° |
| 2026-05-05 06:37 | 42.71308 | 23.13503 | 5011 ft | 187 kts | 92° |
| 2026-05-05 06:37 | 42.71212 | 23.15210 | 5056 ft | 175 kts | 92° |
| 2026-05-05 06:38 | 42.71119 | 23.16826 | 5053 ft | 171 kts | 92° |
| 2026-05-05 06:38 | 42.71025 | 23.18379 | 4875 ft | 160 kts | 91° |
| 2026-05-05 06:38 | 42.70941 | 23.19853 | 4668 ft | 151 kts | 91° |
| 2026-05-05 06:38 | 42.70858 | 23.21243 | 4468 ft | 146 kts | 92° |
| 2026-05-05 06:39 | 42.70782 | 23.22592 | 4265 ft | 140 kts | 92° |
| 2026-05-05 06:39 | 42.70705 | 23.23896 | 4058 ft | 137 kts | 92° |
| 2026-05-05 06:39 | 42.70625 | 23.25173 | 3885 ft | 137 kts | 93° |
| 2026-05-05 06:39 | 42.70554 | 23.26476 | 3713 ft | 138 kts | 92° |
| 2026-05-05 06:40 | 42.70480 | 23.27764 | 3555 ft | 139 kts | 94° |
| 2026-05-05 06:40 | 42.70400 | 23.29074 | 3377 ft | 138 kts | 95° |
| 2026-05-05 06:40 | 42.70325 | 23.30352 | 3189 ft | 135 kts | 94° |
| 2026-05-05 06:40 | 42.70250 | 23.31623 | 2999 ft | 133 kts | 95° |
| 2026-05-05 06:41 | 42.70176 | 23.32857 | 2820 ft | 131 kts | 95° |
| 2026-05-05 06:41 | 42.70103 | 23.34102 | 2642 ft | 131 kts | 95° |
| 2026-05-05 06:41 | 42.70030 | 23.35319 | 2470 ft | 130 kts | 95° |
| 2026-05-05 06:41 | 42.69956 | 23.36553 | 2302 ft | 130 kts | 95° |
| 2026-05-05 06:42 | 42.69883 | 23.37772 | 2141 ft | 130 kts | 95° |
| 2026-05-05 06:42 | 42.69808 | 23.39025 | 1980 ft | 132 kts | 95° |
| 2026-05-05 06:42 | 42.69740 | 23.40233 | 1793 ft | 122 kts | 92° |
| 2026-05-05 06:42 | 42.69683 | 23.41244 | 1791 ft | 89 kts | 94° |
| 2026-05-05 06:43 | 42.69653 | 23.41644 | 1790 ft | 27 kts | 116° |
| 2026-05-05 06:43 | 42.69616 | 23.41658 | 1791 ft | 1 kts | 221° |
| 2026-05-05 06:43 | 42.69606 | 23.41633 | 1782 ft | 2 kts | 243° |
| 2026-05-05 06:43 | 42.69590 | 23.41590 | 1785 ft | 8 kts | 244° |
| 2026-05-05 06:44 | 42.69574 | 23.41543 | 1787 ft | 3 kts | 244° |
| 2026-05-05 06:44 | 42.69555 | 23.41489 | 1784 ft | 9 kts | 244° |
| 2026-05-05 06:44 | 42.69541 | 23.41471 | 1786 ft | 10 kts | 212° |
| 2026-05-05 06:44 | 42.69500 | 23.41478 | 1787 ft | 12 kts | 152° |
| 2026-05-05 06:45 | 42.69415 | 23.41527 | 1782 ft | 15 kts | 180° |
| 2026-05-05 06:45 | 42.69304 | 23.41505 | 1790 ft | 11 kts | 211° |
| 2026-05-05 06:45 | 42.69287 | 23.41414 | 1789 ft | 12 kts | 275° |
| 2026-05-05 06:45 | 42.69295 | 23.41281 | 1784 ft | 16 kts | 273° |
| 2026-05-05 06:46 | 42.69250 | 23.41159 | 1791 ft | 16 kts | 192° |
| 2026-05-05 06:46 | 42.69158 | 23.41175 | 1791 ft | 11 kts | 163° |
| 2026-05-05 06:46 | 42.69134 | 23.41194 | 1791 ft | 0 kts | 105° |
| 2026-05-05 06:46 | 42.69134 | 23.41197 | 1791 ft | 0 kts | 107° |
| 2026-05-05 06:47 | 42.69126 | 23.41207 | 1787 ft | 1 kts | 153° |
| 2026-05-05 06:47 | 42.69103 | 23.41225 | 1784 ft | 3 kts | 136° |
| 2026-05-05 06:47 | 42.69100 | 23.41242 | 1790 ft | 4 kts | 90° |
| 2026-05-05 06:47 | 42.69109 | 23.41282 | 1785 ft | 0 kts | 70° |